バミューダ の空港の天気 - METARとTAF

バミューダ国際空港 ( TXKF / BDA ) - バミューダ諸島 Ferry Reach
飛行場実況気象(Metar)
観測時間04/21 13:55 ADT (04/21 16:55 UTC)
風向・風速南東 9m/s
視程10km以上
天気現象
少しの雲 雲底高度 940m
少しの雲 雲底高度 9140m
気温23℃
湿度69%
気圧1026hPa
METARTXKF 211655Z 14017KT 9999 FEW031 FEW300 23/17 Q1026
過去の天気等 Google飛行場航空写真 Wunderground天気予報

過去48時間のMETAR

飛行場予報(TAF)
発表時間: 4/21 08:30 ADT (4/21 11:30 UTC)
予報対象時間: 21日9時 ADT ~ 22日9時 ADT
風向・風速南東 8m/s
視程10km以上
少しの雲 雲底高度 760m
全天の8割程度の雲 雲底高度 1370m
TAF TXKF 211130Z 2112/2212 14016KT 9999 FEW025 BKN045